createdAt,value
2023-05-09T00:00:24.160Z,7.5
2023-05-09T00:01:24.153Z,7.5
2023-05-09T00:02:24.280Z,7.5
2023-05-09T00:03:24.123Z,7.5
2023-05-09T00:04:24.301Z,7.5
2023-05-09T00:05:24.229Z,7.5
2023-05-09T00:06:24.162Z,7.5
2023-05-09T00:07:24.180Z,7.5
2023-05-09T00:08:24.192Z,7.5
2023-05-09T00:09:24.136Z,7.5
2023-05-09T00:10:24.225Z,7.5
2023-05-09T00:11:24.130Z,7.5
2023-05-09T00:12:24.147Z,7.5
2023-05-09T00:13:24.204Z,7.5
2023-05-09T00:14:24.154Z,7.5
2023-05-09T00:15:24.155Z,7.5
2023-05-09T00:16:24.345Z,7.5
2023-05-09T00:17:24.232Z,7.5
2023-05-09T00:18:24.157Z,7.5
2023-05-09T00:19:24.394Z,7.5
2023-05-09T00:20:24.177Z,7.5
2023-05-09T00:21:24.223Z,7.5
2023-05-09T00:22:24.230Z,7.5
2023-05-09T00:23:24.169Z,7.5
2023-05-09T00:24:24.196Z,7.5
2023-05-09T00:25:24.232Z,7.5
2023-05-09T00:26:24.152Z,7.5
2023-05-09T00:27:24.155Z,7.5
2023-05-09T00:28:24.250Z,7.5
2023-05-09T00:29:24.166Z,7.5
2023-05-09T00:30:24.171Z,7.5
2023-05-09T00:31:24.170Z,7.5
2023-05-09T00:32:24.285Z,6.9
2023-05-09T00:33:24.169Z,6.9
2023-05-09T00:34:24.205Z,6.9
2023-05-09T00:35:24.244Z,6.9
2023-05-09T00:36:24.220Z,6.9
2023-05-09T00:37:24.158Z,6.9
2023-05-09T00:38:24.213Z,6.9
2023-05-09T00:39:24.169Z,6.9
2023-05-09T00:40:24.215Z,6.9
2023-05-09T00:41:24.204Z,6.9
2023-05-09T00:42:24.212Z,6.9
2023-05-09T00:43:24.211Z,6.9
2023-05-09T00:44:24.211Z,6.9
2023-05-09T00:45:24.228Z,6.8
2023-05-09T00:46:24.274Z,6.8
2023-05-09T00:47:24.336Z,6.8
2023-05-09T00:48:24.209Z,6.8
2023-05-09T00:49:24.210Z,6.8
2023-05-09T00:50:24.220Z,6.8
2023-05-09T00:51:24.187Z,6.8
2023-05-09T00:52:24.220Z,6.8
2023-05-09T00:53:24.210Z,6.8
2023-05-09T00:54:24.221Z,6.8
2023-05-09T00:55:24.212Z,6.8
2023-05-09T00:56:24.220Z,6.8
2023-05-09T00:57:24.205Z,6.8
2023-05-09T00:58:24.227Z,6.8
2023-05-09T00:59:24.216Z,6.8
2023-05-09T01:00:24.256Z,6.8
2023-05-09T01:01:24.292Z,6.8
2023-05-09T01:02:24.380Z,6.8
2023-05-09T01:03:24.317Z,6.8
2023-05-09T01:04:24.230Z,6.8
2023-05-09T01:05:24.228Z,6.8
2023-05-09T01:06:24.239Z,6.8
2023-05-09T01:07:24.245Z,6.8
2023-05-09T01:08:24.278Z,6.8
2023-05-09T01:09:24.226Z,6.8
2023-05-09T01:10:24.261Z,6.8
2023-05-09T01:11:24.227Z,6.8
2023-05-09T01:12:24.188Z,6.8
2023-05-09T01:13:24.216Z,6.8
2023-05-09T01:14:24.221Z,6.8
2023-05-09T01:15:24.256Z,6.8
2023-05-09T01:16:24.293Z,6.5
2023-05-09T01:17:24.230Z,6.5
2023-05-09T01:18:24.260Z,6.5
2023-05-09T01:19:24.274Z,6.5
2023-05-09T01:20:24.286Z,6.5
2023-05-09T01:21:24.267Z,6.5
2023-05-09T01:22:24.237Z,6.5
2023-05-09T01:23:24.235Z,6.5
2023-05-09T01:24:24.284Z,6.5
2023-05-09T01:25:24.273Z,6.5
2023-05-09T01:26:24.217Z,6.5
2023-05-09T01:27:24.275Z,6.5
2023-05-09T01:28:24.222Z,6.5
2023-05-09T01:29:24.278Z,6.5
2023-05-09T01:30:24.236Z,6.5
2023-05-09T01:31:24.366Z,6.5
2023-05-09T01:32:24.304Z,6.5
2023-05-09T01:33:24.275Z,6.5
2023-05-09T01:34:24.281Z,6.5
2023-05-09T01:35:24.274Z,6.5
2023-05-09T01:36:24.230Z,6.5
2023-05-09T01:37:24.270Z,6.5
2023-05-09T01:38:24.270Z,6.5
2023-05-09T01:39:24.268Z,6.5
2023-05-09T01:40:24.272Z,6.5
2023-05-09T01:41:24.281Z,6.5
2023-05-09T01:42:24.268Z,6.5
2023-05-09T01:43:24.268Z,6.3
2023-05-09T01:44:24.283Z,6.3
2023-05-09T01:45:24.264Z,6.3
2023-05-09T01:46:24.325Z,6.3
2023-05-09T01:47:24.282Z,6.3
2023-05-09T01:48:24.324Z,6.3
2023-05-09T01:49:24.238Z,6.3
2023-05-09T01:50:24.275Z,6.3
2023-05-09T01:51:24.280Z,6.3
2023-05-09T01:52:24.281Z,6.3
2023-05-09T01:53:24.279Z,6.3
2023-05-09T01:54:24.333Z,6.3
2023-05-09T01:55:24.267Z,6.3
2023-05-09T01:56:24.277Z,6.3
2023-05-09T01:57:24.289Z,6.3
2023-05-09T01:58:24.506Z,6.3
2023-05-09T01:59:24.250Z,6.3
2023-05-09T02:00:24.326Z,6.3
2023-05-09T02:01:24.329Z,6.3
2023-05-09T02:02:24.355Z,6.3
2023-05-09T02:03:24.305Z,6.3
2023-05-09T02:04:24.277Z,6.3
2023-05-09T02:05:24.291Z,6.3
2023-05-09T02:06:24.287Z,6.3
2023-05-09T02:07:24.313Z,6.3
2023-05-09T02:08:24.278Z,6.3
2023-05-09T02:09:24.264Z,6.3
2023-05-09T02:10:24.294Z,6.3
2023-05-09T02:11:24.302Z,6.3
2023-05-09T02:12:24.300Z,6.3
2023-05-09T02:13:24.283Z,6.3
2023-05-09T02:14:24.238Z,6.3
2023-05-09T02:15:24.290Z,6.3
2023-05-09T02:16:24.311Z,6
2023-05-09T02:17:24.328Z,6
2023-05-09T02:18:24.300Z,6
2023-05-09T02:19:24.314Z,6
2023-05-09T02:20:24.311Z,6
2023-05-09T02:21:24.294Z,6
2023-05-09T02:22:24.297Z,6
2023-05-09T02:23:24.334Z,6
2023-05-09T02:24:24.295Z,6
2023-05-09T02:25:24.252Z,6
2023-05-09T02:26:24.287Z,6
2023-05-09T02:27:24.305Z,6
2023-05-09T02:28:24.304Z,6
2023-05-09T02:29:24.300Z,6
2023-05-09T02:30:24.274Z,6
2023-05-09T02:31:24.422Z,6
2023-05-09T02:32:24.298Z,6
2023-05-09T02:33:24.338Z,6
2023-05-09T02:34:24.388Z,6
2023-05-09T02:35:25.327Z,6
2023-05-09T02:36:24.368Z,6
2023-05-09T02:37:24.301Z,6
2023-05-09T02:38:26.325Z,6
2023-05-09T02:39:24.328Z,6
2023-05-09T02:40:24.327Z,6
2023-05-09T02:41:24.356Z,5.8
2023-05-09T02:42:24.317Z,5.8
2023-05-09T02:43:24.330Z,5.8
2023-05-09T02:44:24.336Z,5.8
2023-05-09T02:45:24.310Z,5.8
2023-05-09T02:46:24.373Z,5.8
2023-05-09T02:47:24.354Z,5.8
2023-05-09T02:48:24.344Z,5.8
2023-05-09T02:49:32.087Z,5.8
2023-05-09T02:50:24.378Z,5.8
2023-05-09T02:51:24.309Z,5.8
2023-05-09T02:52:24.305Z,5.8
2023-05-09T02:53:24.323Z,5.8
2023-05-09T02:54:24.344Z,5.8
2023-05-09T02:55:24.311Z,5.8
2023-05-09T02:56:24.327Z,5.8
2023-05-09T02:57:24.310Z,5.8
2023-05-09T02:58:24.358Z,5.8
2023-05-09T02:59:24.319Z,5.8
2023-05-09T03:00:24.348Z,5.8
2023-05-09T03:01:24.342Z,5.8
2023-05-09T03:02:24.380Z,5.8
2023-05-09T03:03:24.357Z,5.8
2023-05-09T03:04:24.334Z,5.8
2023-05-09T03:05:24.350Z,5.8
2023-05-09T03:06:24.354Z,5.8
2023-05-09T03:07:24.363Z,5.8
2023-05-09T03:08:24.360Z,5.5
2023-05-09T03:09:24.400Z,5.5
2023-05-09T03:10:24.373Z,5.5
2023-05-09T03:11:24.345Z,5.5
2023-05-09T03:12:24.349Z,5.5
2023-05-09T03:13:24.423Z,5.5
2023-05-09T03:14:24.355Z,5.5
2023-05-09T03:15:24.361Z,5.5
2023-05-09T03:16:24.479Z,5.5
2023-05-09T03:17:24.486Z,5.5
2023-05-09T03:18:24.440Z,5.5
2023-05-09T03:19:24.334Z,5.5
2023-05-09T03:20:24.361Z,5.5
2023-05-09T03:21:24.355Z,5.4
2023-05-09T03:22:24.361Z,5.4
2023-05-09T03:23:24.378Z,5.4
2023-05-09T03:24:24.396Z,5.4
2023-05-09T03:25:24.377Z,5.4
2023-05-09T03:26:24.386Z,5.4
2023-05-09T03:27:24.399Z,5.4
2023-05-09T03:28:24.404Z,5.4
2023-05-09T03:29:24.418Z,5.4
2023-05-09T03:30:24.461Z,5.4
2023-05-09T03:31:24.383Z,5.4
2023-05-09T03:32:24.541Z,5.2
2023-05-09T03:33:24.408Z,5.2
2023-05-09T03:34:24.411Z,5.2
2023-05-09T03:35:24.407Z,5.2
2023-05-09T03:36:24.453Z,5.2
2023-05-09T03:37:26.877Z,5.2
2023-05-09T03:38:24.408Z,5.2
2023-05-09T03:39:24.442Z,5.2
2023-05-09T03:40:24.413Z,5.2
2023-05-09T03:41:24.472Z,5.2
2023-05-09T03:42:24.422Z,5.2
2023-05-09T03:43:24.451Z,5.2
2023-05-09T03:44:24.438Z,5.2
2023-05-09T03:45:24.411Z,5.2
2023-05-09T03:46:24.430Z,5.2
2023-05-09T03:47:24.473Z,5.2
2023-05-09T03:48:24.450Z,5.2
2023-05-09T03:49:24.436Z,5.2
2023-05-09T03:50:24.423Z,5.2
2023-05-09T03:51:24.446Z,5.2
2023-05-09T03:52:24.435Z,5.2
2023-05-09T03:53:24.442Z,5.2
2023-05-09T03:54:24.441Z,5.2
2023-05-09T03:55:24.430Z,5.2
2023-05-09T03:56:24.407Z,5.2
2023-05-09T03:57:24.413Z,5.2
2023-05-09T03:58:24.403Z,5.2
2023-05-09T03:59:24.458Z,5.2
2023-05-09T04:00:24.455Z,5.2
2023-05-09T04:01:24.462Z,5.2
2023-05-09T04:02:24.635Z,5.2
2023-05-09T04:03:24.474Z,5.2
2023-05-09T04:04:24.464Z,5.2
2023-05-09T04:05:24.441Z,5.2
2023-05-09T04:06:24.454Z,5.2
2023-05-09T04:07:24.476Z,5.2
2023-05-09T04:08:24.490Z,5.2
2023-05-09T04:09:24.406Z,5.2
2023-05-09T04:10:24.456Z,5.2
2023-05-09T04:11:24.414Z,5.2
2023-05-09T04:12:24.442Z,5.2
2023-05-09T04:13:24.516Z,5.2
2023-05-09T04:14:24.440Z,5.2
2023-05-09T04:15:24.503Z,5.2
2023-05-09T04:16:24.448Z,5.2
2023-05-09T04:17:24.486Z,5.2
2023-05-09T04:18:24.585Z,5.2
2023-05-09T04:19:24.426Z,5.2
2023-05-09T04:20:24.472Z,5.2
2023-05-09T04:21:24.472Z,5.2
2023-05-09T04:22:24.450Z,5.2
2023-05-09T04:23:24.446Z,5.2
2023-05-09T04:24:24.470Z,5.2
2023-05-09T04:25:24.470Z,5.2
2023-05-09T04:26:24.469Z,5.2
2023-05-09T04:27:24.470Z,5.2
2023-05-09T04:28:24.459Z,5.9
2023-05-09T04:29:24.496Z,5.9
2023-05-09T04:30:24.434Z,5.9
2023-05-09T04:31:24.511Z,5.9
2023-05-09T04:32:24.507Z,5.9
2023-05-09T04:33:24.453Z,5.9
2023-05-09T04:34:24.436Z,5.9
2023-05-09T04:35:24.505Z,5.9
2023-05-09T04:36:24.493Z,5.9
2023-05-09T04:37:24.449Z,5.9
2023-05-09T04:38:24.470Z,5.9
2023-05-09T04:39:24.488Z,5.9
2023-05-09T04:40:26.759Z,6.4
2023-05-09T04:41:24.497Z,6.4
2023-05-09T04:42:24.502Z,6.4
2023-05-09T04:43:24.481Z,6.4
2023-05-09T04:44:24.467Z,6.4
2023-05-09T04:45:24.495Z,6.4
2023-05-09T04:46:25.722Z,6.4
2023-05-09T04:47:24.486Z,6.4
2023-05-09T04:48:24.488Z,6.4
2023-05-09T04:49:24.490Z,6.9
2023-05-09T04:50:24.533Z,6.9
2023-05-09T04:51:24.567Z,6.9
2023-05-09T04:52:24.478Z,6.9
2023-05-09T04:53:24.492Z,6.9
2023-05-09T04:54:24.487Z,6.9
2023-05-09T04:55:24.497Z,6.9
2023-05-09T04:56:24.540Z,7.4
2023-05-09T04:57:24.492Z,7.4
2023-05-09T04:58:24.534Z,7.4
2023-05-09T04:59:24.493Z,7.4
2023-05-09T05:00:24.497Z,7.4
2023-05-09T05:01:24.502Z,7.4
2023-05-09T05:02:24.549Z,7.9
2023-05-09T05:03:24.539Z,7.9
2023-05-09T05:04:24.572Z,7.9
2023-05-09T05:05:25.243Z,7.9
2023-05-09T05:06:24.523Z,7.9
2023-05-09T05:07:24.494Z,7.9
2023-05-09T05:08:24.517Z,7.9
2023-05-09T05:09:24.612Z,7.9
2023-05-09T05:10:24.520Z,7.9
2023-05-09T05:11:24.500Z,7.9
2023-05-09T05:12:24.502Z,7.9
2023-05-09T05:13:24.557Z,8.4
2023-05-09T05:14:24.519Z,8.4
2023-05-09T05:15:24.541Z,8.4
2023-05-09T05:16:24.542Z,8.4
2023-05-09T05:17:24.540Z,8.4
2023-05-09T05:18:24.499Z,8.4
2023-05-09T05:19:24.509Z,8.4
2023-05-09T05:20:24.511Z,8.4
2023-05-09T05:21:24.504Z,8.4
2023-05-09T05:22:24.515Z,8.8
2023-05-09T05:23:24.519Z,9
2023-05-09T05:24:24.527Z,9
2023-05-09T05:25:24.521Z,9
2023-05-09T05:26:24.568Z,9
2023-05-09T05:27:24.515Z,9
2023-05-09T05:28:24.571Z,9
2023-05-09T05:29:24.523Z,9
2023-05-09T05:30:24.522Z,9
2023-05-09T05:31:24.577Z,9
2023-05-09T05:32:24.611Z,9
2023-05-09T05:33:24.520Z,9
2023-05-09T05:34:24.519Z,9
2023-05-09T05:35:24.561Z,9
2023-05-09T05:36:24.512Z,9
2023-05-09T05:37:24.526Z,9
2023-05-09T05:38:24.524Z,9.5
2023-05-09T05:39:24.564Z,9.5
2023-05-09T05:40:24.522Z,9.5
2023-05-09T05:41:24.503Z,9.5
2023-05-09T05:42:24.519Z,9.5
2023-05-09T05:43:24.566Z,9.5
2023-05-09T05:44:24.516Z,9.5
2023-05-09T05:45:24.498Z,9.5
2023-05-09T05:46:24.633Z,9.5
2023-05-09T05:47:24.525Z,10
2023-05-09T05:48:24.566Z,10
2023-05-09T05:49:24.550Z,10
2023-05-09T05:50:24.514Z,10
2023-05-09T05:51:24.553Z,10
2023-05-09T05:52:24.536Z,10
2023-05-09T05:53:24.516Z,10
2023-05-09T05:54:24.520Z,10
2023-05-09T05:55:24.563Z,10
2023-05-09T05:56:24.494Z,10
2023-05-09T05:57:24.546Z,10
2023-05-09T05:58:24.504Z,10.5
2023-05-09T05:59:24.542Z,10.5
2023-05-09T06:00:24.604Z,10.5
2023-05-09T06:01:24.544Z,10.5
2023-05-09T06:02:24.605Z,10.5
2023-05-09T06:03:24.711Z,10.5
2023-05-09T06:04:24.552Z,10.5
2023-05-09T06:05:24.554Z,10.5
2023-05-09T06:06:24.591Z,10.5
2023-05-09T06:07:24.552Z,10.5
2023-05-09T06:08:24.580Z,11
2023-05-09T06:09:24.554Z,11
2023-05-09T06:10:24.554Z,11
2023-05-09T06:11:24.547Z,11
2023-05-09T06:12:26.128Z,11
2023-05-09T06:13:24.676Z,11.3
2023-05-09T06:14:24.544Z,11.3
2023-05-09T06:15:24.557Z,11.3
2023-05-09T06:16:24.584Z,11.3
2023-05-09T06:17:24.595Z,11.3
2023-05-09T06:18:24.558Z,11.3
2023-05-09T06:19:24.546Z,11.5
2023-05-09T06:20:24.551Z,11.5
2023-05-09T06:21:24.543Z,11.5
2023-05-09T06:22:24.540Z,11.5
2023-05-09T06:23:24.566Z,11.5
2023-05-09T06:24:35.230Z,11.5
2023-05-09T06:25:24.718Z,11.5
2023-05-09T06:26:24.595Z,11.5
2023-05-09T06:27:24.527Z,12.1
2023-05-09T06:28:24.554Z,12.1
2023-05-09T06:29:24.591Z,12.1
2023-05-09T06:30:26.795Z,12.1
2023-05-09T06:31:25.819Z,12.1
2023-05-09T06:32:24.604Z,12.1
2023-05-09T06:33:24.586Z,12.1
2023-05-09T06:34:24.558Z,12.1
2023-05-09T06:35:24.582Z,12.1
2023-05-09T06:36:24.631Z,12.1
2023-05-09T06:37:24.573Z,12.1
2023-05-09T06:38:24.593Z,12.6
2023-05-09T06:39:24.596Z,12.6
2023-05-09T06:40:24.597Z,12.6
2023-05-09T06:41:24.550Z,12.6
2023-05-09T06:42:24.574Z,12.6
2023-05-09T06:43:24.580Z,12.6
2023-05-09T06:44:24.578Z,12.6
2023-05-09T06:45:24.624Z,12.6
2023-05-09T06:46:24.629Z,12.6
2023-05-09T06:47:24.689Z,12.6
2023-05-09T06:48:24.548Z,12.6
2023-05-09T06:49:24.552Z,12.6
2023-05-09T06:50:24.566Z,12.6
2023-05-09T06:51:24.595Z,12.6
2023-05-09T06:52:24.576Z,12.6
2023-05-09T06:53:24.586Z,13.1
2023-05-09T06:54:24.553Z,13.1
2023-05-09T06:55:24.591Z,13.1
2023-05-09T06:56:24.552Z,13.1
2023-05-09T06:57:24.592Z,13.1
2023-05-09T06:58:24.603Z,13.1
2023-05-09T06:59:24.596Z,13.1
2023-05-09T07:00:24.592Z,13.1
2023-05-09T07:01:24.604Z,13.1
2023-05-09T07:02:24.645Z,13.1
2023-05-09T07:03:24.599Z,13.1
2023-05-09T07:04:24.631Z,13.1
2023-05-09T07:05:24.630Z,13.6
2023-05-09T07:06:24.596Z,13.6
2023-05-09T07:07:24.598Z,13.6
2023-05-09T07:08:24.646Z,13.6
2023-05-09T07:09:24.579Z,13.6
2023-05-09T07:10:24.603Z,13.6
2023-05-09T07:11:24.703Z,13.6
2023-05-09T07:12:24.632Z,13.6
2023-05-09T07:13:24.629Z,13.6
2023-05-09T07:14:24.617Z,13.6
2023-05-09T07:15:39.637Z,13.6
2023-05-09T07:16:24.671Z,13.6
2023-05-09T07:17:24.780Z,13.6
2023-05-09T07:18:24.623Z,13.6
2023-05-09T07:19:24.609Z,13.6
2023-05-09T07:20:24.675Z,13.6
2023-05-09T07:21:24.611Z,13.6
2023-05-09T07:22:24.650Z,13.6
2023-05-09T07:23:24.635Z,13.6
2023-05-09T07:24:24.614Z,14.1
2023-05-09T07:25:24.611Z,14.1
2023-05-09T07:26:24.654Z,14.1
2023-05-09T07:27:24.608Z,14.1
2023-05-09T07:28:24.657Z,14.1
2023-05-09T07:29:24.635Z,14.1
2023-05-09T07:30:24.628Z,14.1
2023-05-09T07:31:24.643Z,14.1
2023-05-09T07:32:24.673Z,14.1
2023-05-09T07:33:24.643Z,14.1
2023-05-09T07:34:24.649Z,14.1
2023-05-09T07:35:24.608Z,14.1
2023-05-09T07:36:24.651Z,14.1
2023-05-09T07:37:24.615Z,14.1
2023-05-09T07:38:24.733Z,14.1
2023-05-09T07:39:24.609Z,14.1
2023-05-09T07:40:24.610Z,14.1
2023-05-09T07:41:24.645Z,14.1
2023-05-09T07:42:24.672Z,14.1
2023-05-09T07:43:24.632Z,14.1
2023-05-09T07:44:24.654Z,14.1
2023-05-09T07:45:24.630Z,14.1
2023-05-09T07:46:24.741Z,14.1
2023-05-09T07:47:24.724Z,14.1
2023-05-09T07:48:24.652Z,14.1
2023-05-09T07:49:24.651Z,14.1
2023-05-09T07:50:24.783Z,14.1
2023-05-09T07:51:24.625Z,14.1
2023-05-09T07:52:24.645Z,14.1
2023-05-09T07:53:24.680Z,14.1
2023-05-09T07:54:24.667Z,14.1
2023-05-09T07:55:24.687Z,14.1
2023-05-09T07:56:24.681Z,14.1
2023-05-09T07:57:24.679Z,14.1
2023-05-09T07:58:24.714Z,14.1
2023-05-09T07:59:24.673Z,14.1
2023-05-09T08:00:24.774Z,14.1
2023-05-09T08:01:24.678Z,14.1
2023-05-09T08:02:24.762Z,14.1
2023-05-09T08:03:24.758Z,14.1
2023-05-09T08:04:24.769Z,14.1
2023-05-09T08:05:24.675Z,14.1
2023-05-09T08:06:24.696Z,14.1
2023-05-09T08:07:24.677Z,14.1
2023-05-09T08:08:24.722Z,14.1
2023-05-09T08:09:24.681Z,14.1
2023-05-09T08:10:24.688Z,14.1
2023-05-09T08:11:24.687Z,14.1
2023-05-09T08:12:24.712Z,14.1
2023-05-09T08:13:24.872Z,14.1
2023-05-09T08:14:24.673Z,14.1
2023-05-09T08:15:24.686Z,14.1
2023-05-09T08:16:24.782Z,14.6
2023-05-09T08:17:24.713Z,14.6
2023-05-09T08:18:24.735Z,14.6
2023-05-09T08:19:24.697Z,14.6
2023-05-09T08:20:24.696Z,14.6
2023-05-09T08:21:24.674Z,14.6
2023-05-09T08:22:24.698Z,14.6
2023-05-09T08:23:24.702Z,14.6
2023-05-09T08:24:24.710Z,14.6
2023-05-09T08:25:24.707Z,14.6
2023-05-09T08:26:24.684Z,14.6
2023-05-09T08:27:24.733Z,14.6
2023-05-09T08:28:24.699Z,15.1
2023-05-09T08:29:24.706Z,15.1
2023-05-09T08:30:24.723Z,15.1
2023-05-09T08:31:24.696Z,15.1
2023-05-09T08:32:24.708Z,15.1
2023-05-09T08:33:24.739Z,15.1
2023-05-09T08:34:24.727Z,15.1
2023-05-09T08:35:24.737Z,15.1
2023-05-09T08:36:24.729Z,15.1
2023-05-09T08:37:24.725Z,15.1
2023-05-09T08:38:24.773Z,15.1
2023-05-09T08:39:24.720Z,15.1
2023-05-09T08:40:24.724Z,15.1
2023-05-09T08:41:24.727Z,15.1
2023-05-09T08:42:26.349Z,15.1
2023-05-09T08:43:24.778Z,15.1
2023-05-09T08:44:24.725Z,15.1
2023-05-09T08:45:24.728Z,15.1
2023-05-09T08:46:24.799Z,15.1
2023-05-09T08:47:24.779Z,15.1
2023-05-09T08:48:24.750Z,15.1
2023-05-09T08:49:24.776Z,15.1
2023-05-09T08:50:24.763Z,15.1
2023-05-09T08:51:24.732Z,14.9
2023-05-09T08:52:24.745Z,14.9
2023-05-09T08:53:24.723Z,14.9
2023-05-09T08:54:24.737Z,15.2
2023-05-09T08:55:24.723Z,15.2
2023-05-09T08:56:24.762Z,15.2
2023-05-09T08:57:24.723Z,15.2
2023-05-09T08:58:24.748Z,15.2
2023-05-09T08:59:24.826Z,15.2
2023-05-09T09:00:24.844Z,15.6
2023-05-09T09:01:24.828Z,15.6
2023-05-09T09:02:24.871Z,15.6
2023-05-09T09:03:24.743Z,15.6
2023-05-09T09:04:24.791Z,15.6
2023-05-09T09:05:40.106Z,15.6
2023-05-09T09:06:24.752Z,15.6
2023-05-09T09:07:24.747Z,15.6
2023-05-09T09:08:24.803Z,15.6
2023-05-09T09:09:24.748Z,15.6
2023-05-09T09:10:24.808Z,15.6
2023-05-09T09:11:24.738Z,15.6
2023-05-09T09:12:24.756Z,15.6
2023-05-09T09:13:24.801Z,15.6
2023-05-09T09:14:24.766Z,15.6
2023-05-09T09:15:24.792Z,15.6
2023-05-09T09:16:24.773Z,15.6
2023-05-09T09:17:24.785Z,15.6
2023-05-09T09:18:24.765Z,15.6
2023-05-09T09:19:24.795Z,15.6
2023-05-09T09:20:24.782Z,15.6
2023-05-09T09:21:24.757Z,15.6
2023-05-09T09:22:24.778Z,15.6
2023-05-09T09:23:24.769Z,15.6
2023-05-09T09:24:24.763Z,15.6
2023-05-09T09:25:24.786Z,15.7
2023-05-09T09:26:24.819Z,15.7
2023-05-09T09:27:24.770Z,15.7
2023-05-09T09:28:24.765Z,15.7
2023-05-09T09:29:24.792Z,15.7
2023-05-09T09:30:24.835Z,15.7
2023-05-09T09:31:24.860Z,15.7
2023-05-09T09:32:24.779Z,15.7
2023-05-09T09:33:24.797Z,15.7
2023-05-09T09:34:24.790Z,15.7
2023-05-09T09:35:24.770Z,15.7
2023-05-09T09:36:24.781Z,15.7
2023-05-09T09:37:24.778Z,15.7
2023-05-09T09:38:24.825Z,15.7
2023-05-09T09:39:24.795Z,15.7
2023-05-09T09:40:24.793Z,16.2
2023-05-09T09:41:24.836Z,16.2
2023-05-09T09:42:24.811Z,16.2
2023-05-09T09:43:24.779Z,16.2
2023-05-09T09:44:24.793Z,16.2
2023-05-09T09:45:24.783Z,16.8
2023-05-09T09:46:24.832Z,16.8
2023-05-09T09:47:24.791Z,16.8
2023-05-09T09:48:24.816Z,16.8
2023-05-09T09:49:24.802Z,16.6
2023-05-09T09:50:24.794Z,16.6
2023-05-09T09:51:24.781Z,16.6
2023-05-09T09:52:24.798Z,16.6
2023-05-09T09:53:24.811Z,16.6
2023-05-09T09:54:24.842Z,16.6
2023-05-09T09:55:24.799Z,16.6
2023-05-09T09:56:24.799Z,16.6
2023-05-09T09:57:24.820Z,16.6
2023-05-09T09:58:24.866Z,16.6
2023-05-09T09:59:24.915Z,16.6
2023-05-09T10:00:24.799Z,16.6
2023-05-09T10:01:24.851Z,16.6
2023-05-09T10:02:24.821Z,16.6
2023-05-09T10:03:24.909Z,16.6
2023-05-09T10:04:24.836Z,16.6
2023-05-09T10:05:24.794Z,16.6
2023-05-09T10:06:24.799Z,16.6
2023-05-09T10:07:24.792Z,16.6
2023-05-09T10:08:24.799Z,16.6
2023-05-09T10:09:24.807Z,16.6
2023-05-09T10:10:24.843Z,16.6
2023-05-09T10:11:24.823Z,17.3
2023-05-09T10:12:24.793Z,17.3
2023-05-09T10:13:24.960Z,17.3
2023-05-09T10:14:24.820Z,17.3
2023-05-09T10:15:24.852Z,17.3
2023-05-09T10:16:35.637Z,17.3
2023-05-09T10:17:24.882Z,17.3
2023-05-09T10:18:25.089Z,17.3
2023-05-09T10:19:24.828Z,17.3
2023-05-09T10:20:24.782Z,17.3
2023-05-09T10:21:24.819Z,17.3
2023-05-09T10:22:24.821Z,17.3
2023-05-09T10:23:24.832Z,17.3
2023-05-09T10:24:24.833Z,17.3
2023-05-09T10:25:24.823Z,17.3
2023-05-09T10:26:24.873Z,17.3
2023-05-09T10:27:24.824Z,17.3
2023-05-09T10:28:24.806Z,17.3
2023-05-09T10:29:24.845Z,17.3
2023-05-09T10:30:24.814Z,17.3
2023-05-09T10:31:24.841Z,17.3
2023-05-09T10:32:24.870Z,17.3
2023-05-09T10:33:24.831Z,17.3
2023-05-09T10:34:24.861Z,17.3
2023-05-09T10:35:24.858Z,17.3
2023-05-09T10:36:24.853Z,17.3
2023-05-09T10:37:24.835Z,17.3
2023-05-09T10:38:24.845Z,17.3
2023-05-09T10:39:24.806Z,17.3
2023-05-09T10:40:24.849Z,17.3
2023-05-09T10:41:24.813Z,17.3
2023-05-09T10:42:24.818Z,17.3
2023-05-09T10:43:24.820Z,17.3
2023-05-09T10:44:24.860Z,17.3
2023-05-09T10:45:24.822Z,17.3
2023-05-09T10:46:24.926Z,17.3
2023-05-09T10:47:24.884Z,17.3
2023-05-09T10:48:24.815Z,17.3
2023-05-09T10:49:24.827Z,17.3
2023-05-09T10:50:24.885Z,17.3
2023-05-09T10:51:24.828Z,17.3
2023-05-09T10:52:24.824Z,17.3
2023-05-09T10:53:25.859Z,17.3
2023-05-09T10:54:30.992Z,17.3
2023-05-09T10:55:24.868Z,17.3
2023-05-09T10:56:24.863Z,17.3
2023-05-09T10:57:25.824Z,17.3
2023-05-09T10:58:26.371Z,17.3
2023-05-09T10:59:25.347Z,17.6
2023-05-09T11:00:24.832Z,17.6
2023-05-09T11:01:25.170Z,17.6
2023-05-09T11:02:27.914Z,17.6
2023-05-09T11:03:24.921Z,17.6
2023-05-09T11:04:25.095Z,17.6
2023-05-09T11:05:24.865Z,17.6
2023-05-09T11:06:24.884Z,17.9
2023-05-09T11:07:26.897Z,17.9
2023-05-09T11:08:26.347Z,17.9
2023-05-09T11:09:24.822Z,17.9
2023-05-09T11:10:24.864Z,17.9
2023-05-09T11:11:24.879Z,17.9
2023-05-09T11:12:24.888Z,17.9
2023-05-09T11:13:24.902Z,17.9
2023-05-09T11:14:24.875Z,17.9
2023-05-09T11:15:24.884Z,17.9
2023-05-09T11:16:24.862Z,17.9
2023-05-09T11:17:24.916Z,17.9
2023-05-09T11:18:24.929Z,17.9
2023-05-09T11:19:24.918Z,17.9
2023-05-09T11:20:24.900Z,17.9
2023-05-09T11:21:24.883Z,17.9
2023-05-09T11:22:24.876Z,17.9
2023-05-09T11:23:24.859Z,17.9
2023-05-09T11:24:24.916Z,17.9
2023-05-09T11:25:24.877Z,17.9
2023-05-09T11:26:24.865Z,17.9
2023-05-09T11:27:24.837Z,17.9
2023-05-09T11:28:24.888Z,17.9
2023-05-09T11:29:24.838Z,17.9
2023-05-09T11:30:24.872Z,17.9
2023-05-09T11:31:24.982Z,17.9
2023-05-09T11:32:24.914Z,17.9
2023-05-09T11:33:24.900Z,17.9
2023-05-09T11:34:24.887Z,17.9
2023-05-09T11:35:24.898Z,17.9
2023-05-09T11:36:24.875Z,17.9
2023-05-09T11:37:24.862Z,17.9
2023-05-09T11:38:24.882Z,17.9
2023-05-09T11:39:24.843Z,18.2
2023-05-09T11:40:24.919Z,18.2
2023-05-09T11:41:24.848Z,18.2
2023-05-09T11:42:24.840Z,18.2
2023-05-09T11:43:24.892Z,18.2
2023-05-09T11:44:24.893Z,18.2
2023-05-09T11:45:24.852Z,18.2
2023-05-09T11:46:24.954Z,18.2
2023-05-09T11:47:24.911Z,18.2
2023-05-09T11:48:24.905Z,18.2
2023-05-09T11:49:24.884Z,18.2
2023-05-09T11:50:24.906Z,18.2
2023-05-09T11:51:24.896Z,18.2
2023-05-09T11:52:24.908Z,18.2
2023-05-09T11:53:24.881Z,18.2
2023-05-09T11:54:24.917Z,18.2
2023-05-09T11:55:24.836Z,18.2
2023-05-09T11:56:24.894Z,18.2
2023-05-09T11:57:24.911Z,18.2
2023-05-09T11:58:24.899Z,18.2
2023-05-09T11:59:24.892Z,18.2
2023-05-09T12:00:24.927Z,18.2
2023-05-09T12:01:24.892Z,18.2
2023-05-09T12:02:25.004Z,18.2
2023-05-09T12:03:25.006Z,18.2
2023-05-09T12:04:24.984Z,18.2
2023-05-09T12:05:24.913Z,18.2
2023-05-09T12:06:24.892Z,18.2
2023-05-09T12:07:24.915Z,18.2
2023-05-09T12:08:24.911Z,18.2
2023-05-09T12:09:24.870Z,18.2
2023-05-09T12:10:24.897Z,18.2
2023-05-09T12:11:24.926Z,18.2
2023-05-09T12:12:24.913Z,18.2
2023-05-09T12:13:24.906Z,18.2
2023-05-09T12:14:24.900Z,18.2
2023-05-09T12:15:24.942Z,18.2
2023-05-09T12:16:24.952Z,18.2
2023-05-09T12:17:24.925Z,18.2
2023-05-09T12:18:24.919Z,18.2
2023-05-09T12:19:24.905Z,18.2
2023-05-09T12:20:24.918Z,18.2
2023-05-09T12:21:24.937Z,18.2
2023-05-09T12:22:24.912Z,18.2
2023-05-09T12:23:24.914Z,18.2
2023-05-09T12:24:24.929Z,18.2
2023-05-09T12:25:24.972Z,18.2
2023-05-09T12:26:24.920Z,18.2
2023-05-09T12:27:24.921Z,18.4
2023-05-09T12:28:24.956Z,18.4
2023-05-09T12:29:24.934Z,18.4
2023-05-09T12:30:24.917Z,18.4
2023-05-09T12:31:24.936Z,18.4
2023-05-09T12:32:24.941Z,18.4
2023-05-09T12:33:24.920Z,18.4
2023-05-09T12:34:24.963Z,18.4
2023-05-09T12:35:24.919Z,18.4
2023-05-09T12:36:24.925Z,18.4
2023-05-09T12:37:24.938Z,18.4
2023-05-09T12:38:24.971Z,18.4
2023-05-09T12:39:24.949Z,18.1
2023-05-09T12:40:24.984Z,18.1
2023-05-09T12:42:24.923Z,18.1
2023-05-09T12:43:24.961Z,18.1
2023-05-09T12:44:24.925Z,18.1
2023-05-09T12:45:24.966Z,18.1
2023-05-09T12:46:25.156Z,18.1
2023-05-09T12:47:24.994Z,18.1
2023-05-09T12:48:24.947Z,18.1
2023-05-09T12:49:24.956Z,18.1
2023-05-09T12:50:24.957Z,18.1
2023-05-09T12:51:24.979Z,18.1
2023-05-09T12:52:24.946Z,18.2
2023-05-09T12:53:24.974Z,18.2
2023-05-09T12:54:24.960Z,18.2
2023-05-09T12:55:24.952Z,18.2
2023-05-09T12:56:24.962Z,18.2
2023-05-09T12:57:25.001Z,18.2
2023-05-09T12:58:24.971Z,18.2
2023-05-09T12:59:25.017Z,18.2
2023-05-09T13:00:24.988Z,18.2
2023-05-09T13:01:25.084Z,18.8
2023-05-09T13:02:25.009Z,18.8
2023-05-09T13:03:25.406Z,18.8
2023-05-09T13:04:24.978Z,18.8
2023-05-09T13:05:24.962Z,18.8
2023-05-09T13:06:25.013Z,18.8
2023-05-09T13:07:24.974Z,18.8
2023-05-09T13:08:24.979Z,18.8
2023-05-09T13:09:25.156Z,18.8
2023-05-09T13:10:24.970Z,18.8
2023-05-09T13:11:24.966Z,18.8
2023-05-09T13:12:24.979Z,18.8
2023-05-09T13:13:25.064Z,18.8
2023-05-09T13:14:24.986Z,18.8
2023-05-09T13:15:25.004Z,18.2
2023-05-09T13:16:25.036Z,18.2
2023-05-09T13:17:25.035Z,18.2
2023-05-09T13:18:25.008Z,18.2
2023-05-09T13:19:24.951Z,18.2
2023-05-09T13:20:24.978Z,18.2
2023-05-09T13:21:24.991Z,18.2
2023-05-09T13:22:24.954Z,18.2
2023-05-09T13:23:24.978Z,18.2
2023-05-09T13:24:24.993Z,18.2
2023-05-09T13:25:24.986Z,18.2
2023-05-09T13:26:25.000Z,18.2
2023-05-09T13:27:25.074Z,18.2
2023-05-09T13:28:24.999Z,18.2
2023-05-09T13:29:24.963Z,18.2
2023-05-09T13:30:24.957Z,18.2
2023-05-09T13:31:25.176Z,18.2
2023-05-09T13:32:25.036Z,18.2
2023-05-09T13:33:26.575Z,18.6
2023-05-09T13:34:24.994Z,18.6